sensor_id;sensor_type;location;lat;lon;timestamp;pressure;altitude;pressure_sealevel;temperature;humidity
12178;BME280;6152;48.728;9.256;2023-03-11T00:00:34;96008.22;;;1.65;100.00
12178;BME280;6152;48.728;9.256;2023-03-11T00:03:02;96020.53;;;1.57;100.00
12178;BME280;6152;48.728;9.256;2023-03-11T00:05:32;96012.97;;;1.53;100.00
12178;BME280;6152;48.728;9.256;2023-03-11T00:07:59;96013.88;;;1.52;100.00
12178;BME280;6152;48.728;9.256;2023-03-11T00:10:31;96020.66;;;1.53;100.00
12178;BME280;6152;48.728;9.256;2023-03-11T00:12:58;96014.00;;;1.49;100.00
12178;BME280;6152;48.728;9.256;2023-03-11T00:15:26;96029.66;;;1.43;100.00
12178;BME280;6152;48.728;9.256;2023-03-11T00:17:53;96032.13;;;1.45;100.00
12178;BME280;6152;48.728;9.256;2023-03-11T00:20:31;96033.09;;;1.42;100.00
12178;BME280;6152;48.728;9.256;2023-03-11T00:22:58;96034.13;;;1.38;100.00
12178;BME280;6152;48.728;9.256;2023-03-11T00:25:28;96037.91;;;1.30;100.00
12178;BME280;6152;48.728;9.256;2023-03-11T00:27:54;96046.50;;;1.29;100.00
12178;BME280;6152;48.728;9.256;2023-03-11T00:30:21;96049.88;;;1.29;100.00
12178;BME280;6152;48.728;9.256;2023-03-11T00:32:50;96047.47;;;1.26;100.00
12178;BME280;6152;48.728;9.256;2023-03-11T00:35:19;96049.00;;;1.30;100.00
12178;BME280;6152;48.728;9.256;2023-03-11T00:37:47;96030.28;;;1.28;100.00
12178;BME280;6152;48.728;9.256;2023-03-11T00:40:15;96044.38;;;1.38;100.00
12178;BME280;6152;48.728;9.256;2023-03-11T00:42:42;96033.50;;;1.33;100.00
12178;BME280;6152;48.728;9.256;2023-03-11T00:45:09;96040.41;;;1.31;100.00
12178;BME280;6152;48.728;9.256;2023-03-11T00:47:35;96052.06;;;1.38;100.00
12178;BME280;6152;48.728;9.256;2023-03-11T00:50:02;96058.28;;;1.33;100.00
12178;BME280;6152;48.728;9.256;2023-03-11T00:52:28;96056.28;;;1.39;100.00
12178;BME280;6152;48.728;9.256;2023-03-11T00:54:54;96047.44;;;1.46;100.00
12178;BME280;6152;48.728;9.256;2023-03-11T00:57:21;96053.72;;;1.39;100.00
12178;BME280;6152;48.728;9.256;2023-03-11T00:59:47;96058.53;;;1.47;100.00
12178;BME280;6152;48.728;9.256;2023-03-11T01:02:13;96060.28;;;1.46;100.00
12178;BME280;6152;48.728;9.256;2023-03-11T01:04:39;96051.69;;;1.47;100.00
12178;BME280;6152;48.728;9.256;2023-03-11T01:07:05;96059.88;;;1.56;100.00
12178;BME280;6152;48.728;9.256;2023-03-11T01:09:31;96058.38;;;1.51;100.00
12178;BME280;6152;48.728;9.256;2023-03-11T01:11:57;96055.16;;;1.46;100.00
12178;BME280;6152;48.728;9.256;2023-03-11T01:14:24;96056.28;;;1.39;100.00
12178;BME280;6152;48.728;9.256;2023-03-11T01:16:50;96045.66;;;1.48;100.00
12178;BME280;6152;48.728;9.256;2023-03-11T01:19:16;96036.44;;;1.44;100.00
12178;BME280;6152;48.728;9.256;2023-03-11T01:21:42;96041.44;;;1.47;100.00
12178;BME280;6152;48.728;9.256;2023-03-11T01:24:08;96047.91;;;1.56;100.00
12178;BME280;6152;48.728;9.256;2023-03-11T01:26:34;96037.72;;;1.55;100.00
12178;BME280;6152;48.728;9.256;2023-03-11T01:29:00;96048.09;;;1.51;100.00
12178;BME280;6152;48.728;9.256;2023-03-11T01:31:27;96063.50;;;1.51;100.00
12178;BME280;6152;48.728;9.256;2023-03-11T01:33:53;96074.44;;;1.55;100.00
12178;BME280;6152;48.728;9.256;2023-03-11T01:36:19;96061.63;;;1.55;100.00
12178;BME280;6152;48.728;9.256;2023-03-11T01:38:45;96060.00;;;1.52;100.00
12178;BME280;6152;48.728;9.256;2023-03-11T01:41:12;96085.91;;;1.46;100.00
12178;BME280;6152;48.728;9.256;2023-03-11T01:46:33;96095.00;;;1.33;100.00
12178;BME280;6152;48.728;9.256;2023-03-11T01:49:03;96088.31;;;1.29;100.00
12178;BME280;6152;48.728;9.256;2023-03-11T01:51:40;96101.25;;;1.26;100.00
12178;BME280;6152;48.728;9.256;2023-03-11T01:54:14;96091.41;;;1.17;100.00
12178;BME280;6152;48.728;9.256;2023-03-11T01:56:41;96082.91;;;1.15;100.00
12178;BME280;6152;48.728;9.256;2023-03-11T01:59:09;96081.66;;;1.03;100.00
12178;BME280;6152;48.728;9.256;2023-03-11T02:01:46;96071.81;;;0.94;100.00
12178;BME280;6152;48.728;9.256;2023-03-11T02:04:16;96074.53;;;0.90;100.00
12178;BME280;6152;48.728;9.256;2023-03-11T02:06:42;96095.16;;;0.87;100.00
12178;BME280;6152;48.728;9.256;2023-03-11T02:09:09;96091.94;;;0.82;100.00
12178;BME280;6152;48.728;9.256;2023-03-11T02:11:35;96083.47;;;0.80;100.00
12178;BME280;6152;48.728;9.256;2023-03-11T02:14:03;96089.09;;;0.89;100.00
12178;BME280;6152;48.728;9.256;2023-03-11T02:16:31;96086.59;;;0.88;100.00
12178;BME280;6152;48.728;9.256;2023-03-11T02:19:03;96101.94;;;0.88;100.00
12178;BME280;6152;48.728;9.256;2023-03-11T02:21:33;96105.97;;;0.93;100.00
12178;BME280;6152;48.728;9.256;2023-03-11T02:24:30;96104.38;;;0.91;100.00
12178;BME280;6152;48.728;9.256;2023-03-11T02:27:23;96094.25;;;0.88;100.00
12178;BME280;6152;48.728;9.256;2023-03-11T02:29:51;96101.94;;;0.88;100.00
12178;BME280;6152;48.728;9.256;2023-03-11T02:32:19;96096.94;;;0.85;100.00
12178;BME280;6152;48.728;9.256;2023-03-11T02:34:46;96099.78;;;0.77;100.00
12178;BME280;6152;48.728;9.256;2023-03-11T02:37:14;96100.75;;;0.75;100.00
12178;BME280;6152;48.728;9.256;2023-03-11T02:39:47;96100.31;;;0.64;100.00
12178;BME280;6152;48.728;9.256;2023-03-11T02:42:25;96092.66;;;0.64;100.00
12178;BME280;6152;48.728;9.256;2023-03-11T02:45:07;96087.78;;;0.58;100.00
12178;BME280;6152;48.728;9.256;2023-03-11T02:47:35;96091.56;;;0.47;100.00
12178;BME280;6152;48.728;9.256;2023-03-11T02:50:02;96099.53;;;0.40;100.00
12178;BME280;6152;48.728;9.256;2023-03-11T02:52:30;96094.56;;;0.35;100.00
12178;BME280;6152;48.728;9.256;2023-03-11T02:54:56;96111.03;;;0.28;100.00
12178;BME280;6152;48.728;9.256;2023-03-11T02:57:22;96103.47;;;0.25;100.00
12178;BME280;6152;48.728;9.256;2023-03-11T02:59:48;96081.34;;;0.24;100.00
12178;BME280;6152;48.728;9.256;2023-03-11T03:02:14;96100.47;;;0.14;100.00
12178;BME280;6152;48.728;9.256;2023-03-11T03:04:41;96103.03;;;0.14;100.00
12178;BME280;6152;48.728;9.256;2023-03-11T03:07:07;96111.81;;;0.07;100.00
12178;BME280;6152;48.728;9.256;2023-03-11T03:09:34;96118.72;;;0.05;100.00
12178;BME280;6152;48.728;9.256;2023-03-11T03:12:02;96123.94;;;0.02;100.00
12178;BME280;6152;48.728;9.256;2023-03-11T03:14:29;96125.63;;;0.03;100.00
12178;BME280;6152;48.728;9.256;2023-03-11T03:16:56;96130.28;;;-0.10;100.00
12178;BME280;6152;48.728;9.256;2023-03-11T03:19:22;96144.81;;;-0.10;100.00
12178;BME280;6152;48.728;9.256;2023-03-11T03:21:48;96139.78;;;-0.13;100.00
12178;BME280;6152;48.728;9.256;2023-03-11T03:24:14;96137.25;;;-0.13;100.00
12178;BME280;6152;48.728;9.256;2023-03-11T03:26:43;96138.19;;;-0.16;100.00
12178;BME280;6152;48.728;9.256;2023-03-11T03:29:09;96130.78;;;-0.23;100.00
12178;BME280;6152;48.728;9.256;2023-03-11T03:31:36;96126.66;;;-0.27;100.00
12178;BME280;6152;48.728;9.256;2023-03-11T03:34:02;96124.41;;;-0.36;100.00
12178;BME280;6152;48.728;9.256;2023-03-11T03:36:28;96127.09;;;-0.39;100.00
12178;BME280;6152;48.728;9.256;2023-03-11T03:38:55;96123.75;;;-0.41;100.00
12178;BME280;6152;48.728;9.256;2023-03-11T03:41:22;96127.97;;;-0.40;100.00
12178;BME280;6152;48.728;9.256;2023-03-11T03:43:48;96126.31;;;-0.41;100.00
12178;BME280;6152;48.728;9.256;2023-03-11T03:46:15;96139.97;;;-0.42;100.00
12178;BME280;6152;48.728;9.256;2023-03-11T03:48:41;96139.25;;;-0.47;100.00
12178;BME280;6152;48.728;9.256;2023-03-11T03:51:10;96145.44;;;-0.53;100.00
12178;BME280;6152;48.728;9.256;2023-03-11T03:53:37;96146.38;;;-0.56;100.00
12178;BME280;6152;48.728;9.256;2023-03-11T03:56:04;96148.22;;;-0.61;100.00
12178;BME280;6152;48.728;9.256;2023-03-11T03:58:31;96162.06;;;-0.68;100.00
12178;BME280;6152;48.728;9.256;2023-03-11T04:00:58;96172.41;;;-0.71;100.00
12178;BME280;6152;48.728;9.256;2023-03-11T04:03:26;96178.38;;;-0.72;100.00
12178;BME280;6152;48.728;9.256;2023-03-11T04:05:52;96181.97;;;-0.77;100.00
12178;BME280;6152;48.728;9.256;2023-03-11T04:08:18;96179.44;;;-0.79;100.00
12178;BME280;6152;48.728;9.256;2023-03-11T04:10:45;96187.19;;;-0.80;100.00
12178;BME280;6152;48.728;9.256;2023-03-11T04:13:21;96183.81;;;-0.82;100.00
12178;BME280;6152;48.728;9.256;2023-03-11T04:15:47;96181.13;;;-0.78;100.00
12178;BME280;6152;48.728;9.256;2023-03-11T04:18:13;96180.50;;;-0.84;100.00
12178;BME280;6152;48.728;9.256;2023-03-11T04:20:39;96180.28;;;-0.78;100.00
12178;BME280;6152;48.728;9.256;2023-03-11T04:23:05;96182.84;;;-0.78;100.00
12178;BME280;6152;48.728;9.256;2023-03-11T04:25:32;96176.31;;;-0.87;100.00
12178;BME280;6152;48.728;9.256;2023-03-11T04:27:59;96177.91;;;-0.83;100.00
12178;BME280;6152;48.728;9.256;2023-03-11T04:30:25;96178.88;;;-0.87;100.00
12178;BME280;6152;48.728;9.256;2023-03-11T04:32:51;96184.84;;;-0.88;100.00
12178;BME280;6152;48.728;9.256;2023-03-11T04:35:17;96190.16;;;-0.94;100.00
12178;BME280;6152;48.728;9.256;2023-03-11T04:37:43;96189.44;;;-0.99;100.00
12178;BME280;6152;48.728;9.256;2023-03-11T04:40:10;96188.34;;;-0.90;100.00
12178;BME280;6152;48.728;9.256;2023-03-11T04:42:36;96181.59;;;-0.93;100.00
12178;BME280;6152;48.728;9.256;2023-03-11T04:45:04;96183.28;;;-0.92;100.00
12178;BME280;6152;48.728;9.256;2023-03-11T04:47:31;96179.34;;;-1.02;100.00
12178;BME280;6152;48.728;9.256;2023-03-11T04:49:57;96171.56;;;-0.99;100.00
12178;BME280;6152;48.728;9.256;2023-03-11T04:52:23;96161.69;;;-1.10;100.00
12178;BME280;6152;48.728;9.256;2023-03-11T04:54:49;96175.91;;;-1.01;100.00
12178;BME280;6152;48.728;9.256;2023-03-11T04:57:15;96179.31;;;-1.00;100.00
12178;BME280;6152;48.728;9.256;2023-03-11T04:59:41;96177.63;;;-1.02;100.00
12178;BME280;6152;48.728;9.256;2023-03-11T05:02:07;96187.09;;;-1.05;100.00
12178;BME280;6152;48.728;9.256;2023-03-11T05:04:33;96189.03;;;-1.13;100.00
12178;BME280;6152;48.728;9.256;2023-03-11T05:07:00;96194.13;;;-1.13;100.00
12178;BME280;6152;48.728;9.256;2023-03-11T05:09:26;96192.47;;;-1.14;100.00
12178;BME280;6152;48.728;9.256;2023-03-11T05:11:52;96188.19;;;-1.14;100.00
12178;BME280;6152;48.728;9.256;2023-03-11T05:14:18;96184.00;;;-1.16;100.00
12178;BME280;6152;48.728;9.256;2023-03-11T05:16:44;96186.47;;;-1.13;100.00
12178;BME280;6152;48.728;9.256;2023-03-11T05:19:10;96192.50;;;-1.16;100.00
12178;BME280;6152;48.728;9.256;2023-03-11T05:21:55;96199.31;;;-1.16;100.00
12178;BME280;6152;48.728;9.256;2023-03-11T05:24:21;96196.09;;;-1.21;100.00
12178;BME280;6152;48.728;9.256;2023-03-11T05:26:47;96207.69;;;-1.11;100.00
12178;BME280;6152;48.728;9.256;2023-03-11T05:29:13;96197.41;;;-1.08;100.00
12178;BME280;6152;48.728;9.256;2023-03-11T05:31:39;96201.94;;;-1.18;100.00
12178;BME280;6152;48.728;9.256;2023-03-11T05:34:06;96206.97;;;-1.16;100.00
12178;BME280;6152;48.728;9.256;2023-03-11T05:36:32;96198.66;;;-1.21;100.00
12178;BME280;6152;48.728;9.256;2023-03-11T05:38:58;96211.41;;;-1.21;100.00
12178;BME280;6152;48.728;9.256;2023-03-11T05:41:24;96207.84;;;-1.17;100.00
12178;BME280;6152;48.728;9.256;2023-03-11T05:43:50;96219.75;;;-1.16;100.00
12178;BME280;6152;48.728;9.256;2023-03-11T05:46:16;96216.44;;;-1.20;100.00
12178;BME280;6152;48.728;9.256;2023-03-11T05:48:42;96208.78;;;-1.20;100.00
12178;BME280;6152;48.728;9.256;2023-03-11T05:51:10;96212.38;;;-1.25;100.00
12178;BME280;6152;48.728;9.256;2023-03-11T05:53:36;96206.53;;;-1.30;100.00
12178;BME280;6152;48.728;9.256;2023-03-11T05:56:03;96201.34;;;-1.27;100.00
12178;BME280;6152;48.728;9.256;2023-03-11T05:58:30;96209.81;;;-1.25;100.00
12178;BME280;6152;48.728;9.256;2023-03-11T06:00:57;96216.66;;;-1.27;100.00
12178;BME280;6152;48.728;9.256;2023-03-11T06:03:25;96215.00;;;-1.28;100.00
12178;BME280;6152;48.728;9.256;2023-03-11T06:05:51;96213.22;;;-1.25;100.00
12178;BME280;6152;48.728;9.256;2023-03-11T06:08:18;96214.06;;;-1.24;100.00
12178;BME280;6152;48.728;9.256;2023-03-11T06:10:44;96215.84;;;-1.28;100.00
12178;BME280;6152;48.728;9.256;2023-03-11T06:13:10;96231.97;;;-1.27;100.00
12178;BME280;6152;48.728;9.256;2023-03-11T06:15:38;96231.00;;;-1.23;100.00
12178;BME280;6152;48.728;9.256;2023-03-11T06:18:04;96235.50;;;-1.31;100.00
12178;BME280;6152;48.728;9.256;2023-03-11T06:20:31;96226.00;;;-1.26;100.00
12178;BME280;6152;48.728;9.256;2023-03-11T06:22:57;96230.88;;;-1.19;100.00
12178;BME280;6152;48.728;9.256;2023-03-11T06:25:23;96224.66;;;-1.10;100.00
12178;BME280;6152;48.728;9.256;2023-03-11T06:27:50;96230.44;;;-1.04;100.00
12178;BME280;6152;48.728;9.256;2023-03-11T06:30:18;96231.19;;;-1.00;100.00
12178;BME280;6152;48.728;9.256;2023-03-11T06:32:45;96234.66;;;-1.03;100.00
12178;BME280;6152;48.728;9.256;2023-03-11T06:35:12;96236.31;;;-1.00;100.00
12178;BME280;6152;48.728;9.256;2023-03-11T06:37:39;96241.13;;;-0.91;100.00
12178;BME280;6152;48.728;9.256;2023-03-11T06:40:06;96247.28;;;-0.98;100.00
12178;BME280;6152;48.728;9.256;2023-03-11T06:42:34;96251.44;;;-0.94;100.00
12178;BME280;6152;48.728;9.256;2023-03-11T06:45:00;96256.34;;;-0.88;100.00
12178;BME280;6152;48.728;9.256;2023-03-11T06:47:26;96261.34;;;-0.83;100.00
12178;BME280;6152;48.728;9.256;2023-03-11T06:49:52;96264.53;;;-0.77;100.00
12178;BME280;6152;48.728;9.256;2023-03-11T06:52:19;96273.94;;;-0.79;100.00
12178;BME280;6152;48.728;9.256;2023-03-11T06:54:45;96287.47;;;-0.75;100.00
12178;BME280;6152;48.728;9.256;2023-03-11T06:57:12;96285.31;;;-0.61;100.00
12178;BME280;6152;48.728;9.256;2023-03-11T06:59:38;96291.06;;;-0.53;100.00
12178;BME280;6152;48.728;9.256;2023-03-11T07:02:05;96292.78;;;-0.54;100.00
12178;BME280;6152;48.728;9.256;2023-03-11T07:04:32;96298.75;;;-0.55;100.00
12178;BME280;6152;48.728;9.256;2023-03-11T07:06:58;96304.47;;;-0.46;100.00
12178;BME280;6152;48.728;9.256;2023-03-11T07:09:25;96299.16;;;-0.40;100.00
12178;BME280;6152;48.728;9.256;2023-03-11T07:11:52;96309.38;;;-0.40;100.00
12178;BME280;6152;48.728;9.256;2023-03-11T07:14:19;96294.91;;;-0.40;100.00
12178;BME280;6152;48.728;9.256;2023-03-11T07:16:45;96299.06;;;-0.37;100.00
12178;BME280;6152;48.728;9.256;2023-03-11T07:19:12;96304.81;;;-0.31;100.00
12178;BME280;6152;48.728;9.256;2023-03-11T07:21:39;96313.94;;;-0.22;100.00
12178;BME280;6152;48.728;9.256;2023-03-11T07:24:06;96316.28;;;-0.16;100.00
12178;BME280;6152;48.728;9.256;2023-03-11T07:26:33;96311.69;;;-0.05;100.00
12178;BME280;6152;48.728;9.256;2023-03-11T07:29:00;96311.69;;;-0.05;100.00
12178;BME280;6152;48.728;9.256;2023-03-11T07:31:32;96318.47;;;-0.04;100.00
12178;BME280;6152;48.728;9.256;2023-03-11T07:34:00;96315.72;;;0.02;100.00
12178;BME280;6152;48.728;9.256;2023-03-11T07:36:27;96316.69;;;-0.02;100.00
12178;BME280;6152;48.728;9.256;2023-03-11T07:39:00;96318.38;;;-0.01;100.00
12178;BME280;6152;48.728;9.256;2023-03-11T07:41:30;96321.81;;;-0.02;100.00
12178;BME280;6152;48.728;9.256;2023-03-11T07:43:58;96322.34;;;0.08;100.00
12178;BME280;6152;48.728;9.256;2023-03-11T07:46:26;96333.53;;;0.05;100.00
12178;BME280;6152;48.728;9.256;2023-03-11T07:48:53;96332.56;;;0.08;100.00
12178;BME280;6152;48.728;9.256;2023-03-11T07:51:24;96334.03;;;0.16;100.00
12178;BME280;6152;48.728;9.256;2023-03-11T07:53:53;96334.78;;;0.18;100.00
12178;BME280;6152;48.728;9.256;2023-03-11T07:56:21;96332.97;;;0.22;100.00
12178;BME280;6152;48.728;9.256;2023-03-11T07:58:48;96333.59;;;0.28;100.00
12178;BME280;6152;48.728;9.256;2023-03-11T08:01:17;96335.88;;;0.37;100.00
12178;BME280;6152;48.728;9.256;2023-03-11T08:03:46;96341.56;;;0.45;100.00
12178;BME280;6152;48.728;9.256;2023-03-11T08:06:20;96341.94;;;0.60;100.00
12178;BME280;6152;48.728;9.256;2023-03-11T08:08:49;96352.03;;;0.64;100.00
12178;BME280;6152;48.728;9.256;2023-03-11T08:11:16;96348.28;;;0.73;100.00
12178;BME280;6152;48.728;9.256;2023-03-11T08:13:44;96351.09;;;0.90;100.00
12178;BME280;6152;48.728;9.256;2023-03-11T08:16:13;96345.56;;;1.02;100.00
12178;BME280;6152;48.728;9.256;2023-03-11T08:18:39;96351.16;;;1.13;100.00
12178;BME280;6152;48.728;9.256;2023-03-11T08:21:08;96352.22;;;1.31;100.00
12178;BME280;6152;48.728;9.256;2023-03-11T08:23:34;96351.91;;;1.38;100.00
12178;BME280;6152;48.728;9.256;2023-03-11T08:26:05;96372.72;;;1.31;100.00
12178;BME280;6152;48.728;9.256;2023-03-11T08:28:32;96371.66;;;1.36;100.00
12178;BME280;6152;48.728;9.256;2023-03-11T08:30:58;96364.28;;;1.50;100.00
12178;BME280;6152;48.728;9.256;2023-03-11T08:33:24;96372.75;;;1.52;100.00
12178;BME280;6152;48.728;9.256;2023-03-11T08:35:50;96369.31;;;1.53;100.00
12178;BME280;6152;48.728;9.256;2023-03-11T08:38:16;96381.25;;;1.76;100.00
12178;BME280;6152;48.728;9.256;2023-03-11T08:40:43;96375.06;;;1.82;98.79
12178;BME280;6152;48.728;9.256;2023-03-11T08:43:12;96381.81;;;1.84;97.72
12178;BME280;6152;48.728;9.256;2023-03-11T08:45:42;96380.44;;;2.19;99.29
12178;BME280;6152;48.728;9.256;2023-03-11T08:48:10;96378.44;;;2.47;96.88
12178;BME280;6152;48.728;9.256;2023-03-11T08:50:43;96394.84;;;3.05;90.13
12178;BME280;6152;48.728;9.256;2023-03-11T08:53:09;96390.28;;;3.12;86.77
12178;BME280;6152;48.728;9.256;2023-03-11T08:55:35;96401.03;;;3.40;83.67
12178;BME280;6152;48.728;9.256;2023-03-11T08:58:01;96401.66;;;3.45;79.71
12178;BME280;6152;48.728;9.256;2023-03-11T09:00:27;96397.94;;;3.32;78.95
12178;BME280;6152;48.728;9.256;2023-03-11T09:02:54;96392.16;;;3.47;77.78
12178;BME280;6152;48.728;9.256;2023-03-11T09:05:20;96397.91;;;3.52;77.15
12178;BME280;6152;48.728;9.256;2023-03-11T09:07:46;96398.84;;;3.51;73.30
12178;BME280;6152;48.728;9.256;2023-03-11T09:10:16;96388.19;;;3.59;75.25
12178;BME280;6152;48.728;9.256;2023-03-11T09:12:42;96391.38;;;3.83;73.15
12178;BME280;6152;48.728;9.256;2023-03-11T09:15:09;96402.31;;;3.88;72.56
12178;BME280;6152;48.728;9.256;2023-03-11T09:17:35;96407.31;;;3.91;73.24
12178;BME280;6152;48.728;9.256;2023-03-11T09:20:02;96403.00;;;3.91;72.78
12178;BME280;6152;48.728;9.256;2023-03-11T09:22:28;96407.16;;;3.94;74.44
12178;BME280;6152;48.728;9.256;2023-03-11T09:24:56;96409.66;;;4.14;73.74
12178;BME280;6152;48.728;9.256;2023-03-11T09:27:22;96407.31;;;4.63;65.58
12178;BME280;6152;48.728;9.256;2023-03-11T09:29:48;96413.81;;;4.35;64.30
12178;BME280;6152;48.728;9.256;2023-03-11T09:32:15;96423.91;;;4.57;66.67
12178;BME280;6152;48.728;9.256;2023-03-11T09:34:41;96413.09;;;5.19;62.51
12178;BME280;6152;48.728;9.256;2023-03-11T09:37:08;96406.47;;;5.64;61.03
12178;BME280;6152;48.728;9.256;2023-03-11T09:39:34;96412.00;;;6.97;58.32
12178;BME280;6152;48.728;9.256;2023-03-11T09:42:21;96407.44;;;8.15;51.32
12178;BME280;6152;48.728;9.256;2023-03-11T09:45:13;96398.31;;;8.50;48.17
12178;BME280;6152;48.728;9.256;2023-03-11T09:48:03;96401.63;;;7.97;47.42
12178;BME280;6152;48.728;9.256;2023-03-11T09:50:45;96407.50;;;7.44;47.23
12178;BME280;6152;48.728;9.256;2023-03-11T09:53:28;96405.09;;;8.66;46.03
12178;BME280;6152;48.728;9.256;2023-03-11T09:56:00;96409.97;;;8.97;45.25
12178;BME280;6152;48.728;9.256;2023-03-11T09:58:39;96406.44;;;11.19;43.44
12178;BME280;6152;48.728;9.256;2023-03-11T10:01:16;96396.84;;;13.07;39.25
12178;BME280;6152;48.728;9.256;2023-03-11T10:03:44;96388.03;;;15.28;33.45
12178;BME280;6152;48.728;9.256;2023-03-11T10:06:16;96379.06;;;16.33;31.71
12178;BME280;6152;48.728;9.256;2023-03-11T10:11:18;96384.47;;;14.32;33.32
12178;BME280;6152;48.728;9.256;2023-03-11T10:14:11;96373.41;;;12.10;34.53
12178;BME280;6152;48.728;9.256;2023-03-11T10:17:06;96383.56;;;10.53;36.42
12178;BME280;6152;48.728;9.256;2023-03-11T10:22:54;96378.53;;;8.21;41.99
12178;BME280;6152;48.728;9.256;2023-03-11T10:25:31;96381.41;;;7.33;44.30
12178;BME280;6152;48.728;9.256;2023-03-11T10:28:05;96389.69;;;6.50;46.53
12178;BME280;6152;48.728;9.256;2023-03-11T10:35:55;96393.81;;;5.92;49.30
12178;BME280;6152;48.728;9.256;2023-03-11T10:38:32;96394.16;;;7.22;48.92
12178;BME280;6152;48.728;9.256;2023-03-11T10:41:04;96376.84;;;10.38;43.77
12178;BME280;6152;48.728;9.256;2023-03-11T10:43:40;96375.66;;;12.69;36.42
12178;BME280;6152;48.728;9.256;2023-03-11T10:46:25;96372.41;;;12.33;34.90
12178;BME280;6152;48.728;9.256;2023-03-11T10:48:51;96376.47;;;15.02;31.89
12178;BME280;6152;48.728;9.256;2023-03-11T10:51:22;96366.09;;;14.52;31.33
12178;BME280;6152;48.728;9.256;2023-03-11T10:53:54;96370.38;;;14.53;31.81
12178;BME280;6152;48.728;9.256;2023-03-11T10:56:32;96372.47;;;15.17;31.40
12178;BME280;6152;48.728;9.256;2023-03-11T10:58:59;96372.22;;;14.82;30.14
12178;BME280;6152;48.728;9.256;2023-03-11T11:01:26;96373.56;;;13.87;31.97
12178;BME280;6152;48.728;9.256;2023-03-11T11:03:55;96379.09;;;12.90;31.88
12178;BME280;6152;48.728;9.256;2023-03-11T11:09:24;96381.13;;;11.89;34.07
12178;BME280;6152;48.728;9.256;2023-03-11T11:12:05;96389.47;;;11.02;35.13
12178;BME280;6152;48.728;9.256;2023-03-11T11:15:00;96393.56;;;10.10;36.24
12178;BME280;6152;48.728;9.256;2023-03-11T11:17:32;96390.94;;;9.23;37.16
12178;BME280;6152;48.728;9.256;2023-03-11T11:20:00;96387.28;;;8.74;38.37
12178;BME280;6152;48.728;9.256;2023-03-11T11:22:38;96385.28;;;8.38;39.44
12178;BME280;6152;48.728;9.256;2023-03-11T11:28:13;96391.22;;;7.56;39.69
12178;BME280;6152;48.728;9.256;2023-03-11T11:30:55;96391.28;;;6.83;41.75
12178;BME280;6152;48.728;9.256;2023-03-11T11:33:30;96393.28;;;6.48;41.78
12178;BME280;6152;48.728;9.256;2023-03-11T11:36:00;96390.31;;;6.70;42.01
12178;BME280;6152;48.728;9.256;2023-03-11T11:38:28;96383.66;;;6.95;41.93
12178;BME280;6152;48.728;9.256;2023-03-11T11:40:56;96388.81;;;7.53;41.41
12178;BME280;6152;48.728;9.256;2023-03-11T11:46:36;96380.84;;;8.67;38.32
12178;BME280;6152;48.728;9.256;2023-03-11T11:49:21;96380.22;;;9.15;38.86
12178;BME280;6152;48.728;9.256;2023-03-11T11:54:29;96368.56;;;13.23;33.55
12178;BME280;6152;48.728;9.256;2023-03-11T11:56:56;96365.69;;;15.34;30.35
12178;BME280;6152;48.728;9.256;2023-03-11T11:59:24;96354.16;;;17.00;28.18
12178;BME280;6152;48.728;9.256;2023-03-11T12:16:10;96333.00;;;20.55;22.17
12178;BME280;6152;48.728;9.256;2023-03-11T12:18:52;96325.88;;;19.70;23.16
12178;BME280;6152;48.728;9.256;2023-03-11T12:21:44;96328.41;;;19.47;22.50
12178;BME280;6152;48.728;9.256;2023-03-11T12:26:59;96319.84;;;20.47;21.43
12178;BME280;6152;48.728;9.256;2023-03-11T12:29:32;96314.06;;;20.04;22.18
12178;BME280;6152;48.728;9.256;2023-03-11T12:32:01;96315.59;;;20.38;21.67
12178;BME280;6152;48.728;9.256;2023-03-11T12:34:28;96315.69;;;19.42;22.20
12178;BME280;6152;48.728;9.256;2023-03-11T12:36:58;96312.66;;;17.29;24.08
12178;BME280;6152;48.728;9.256;2023-03-11T12:39:29;96293.97;;;16.89;24.81
12178;BME280;6152;48.728;9.256;2023-03-11T12:44:41;96293.63;;;14.03;27.83
12178;BME280;6152;48.728;9.256;2023-03-11T12:49:42;96311.91;;;16.03;26.01
12178;BME280;6152;48.728;9.256;2023-03-11T12:54:45;96310.63;;;16.80;25.33
12178;BME280;6152;48.728;9.256;2023-03-11T13:08:07;96300.03;;;12.99;30.77
12178;BME280;6152;48.728;9.256;2023-03-11T13:10:40;96311.00;;;12.18;30.94
12178;BME280;6152;48.728;9.256;2023-03-11T13:13:30;96301.59;;;11.50;32.73
12178;BME280;6152;48.728;9.256;2023-03-11T13:16:40;96307.44;;;10.86;34.26
12178;BME280;6152;48.728;9.256;2023-03-11T13:18:48;96307.63;;;10.72;34.61
12178;BME280;6152;48.728;9.256;2023-03-11T13:35:07;96317.81;;;8.25;37.36
12178;BME280;6152;48.728;9.256;2023-03-11T13:40:41;96325.44;;;8.14;38.02
12178;BME280;6152;48.728;9.256;2023-03-11T13:43:15;96328.81;;;8.02;38.88
12178;BME280;6152;48.728;9.256;2023-03-11T13:46:07;96327.72;;;8.06;39.17
12178;BME280;6152;48.728;9.256;2023-03-11T13:48:42;96317.97;;;7.69;38.45
12178;BME280;6152;48.728;9.256;2023-03-11T13:51:19;96328.81;;;7.47;39.68
12178;BME280;6152;48.728;9.256;2023-03-11T13:54:29;96320.22;;;7.32;39.73
12178;BME280;6152;48.728;9.256;2023-03-11T13:57:01;96321.50;;;7.11;40.90
12178;BME280;6152;48.728;9.256;2023-03-11T13:59:30;96326.66;;;7.11;40.82
12178;BME280;6152;48.728;9.256;2023-03-11T14:02:17;96325.56;;;7.01;40.50
12178;BME280;6152;48.728;9.256;2023-03-11T14:05:01;96341.66;;;6.76;40.59
12178;BME280;6152;48.728;9.256;2023-03-11T14:07:30;96342.44;;;6.78;41.36
12178;BME280;6152;48.728;9.256;2023-03-11T14:12:37;96337.44;;;6.75;41.02
12178;BME280;6152;48.728;9.256;2023-03-11T14:15:23;96328.56;;;6.79;42.22
12178;BME280;6152;48.728;9.256;2023-03-11T14:17:52;96332.31;;;6.89;41.72
12178;BME280;6152;48.728;9.256;2023-03-11T14:20:21;96330.88;;;6.84;41.23
12178;BME280;6152;48.728;9.256;2023-03-11T14:22:52;96332.34;;;6.74;41.24
12178;BME280;6152;48.728;9.256;2023-03-11T14:25:25;96338.56;;;6.55;41.72
12178;BME280;6152;48.728;9.256;2023-03-11T14:28:02;96331.59;;;6.42;42.15
12178;BME280;6152;48.728;9.256;2023-03-11T14:30:32;96341.31;;;6.23;42.56
12178;BME280;6152;48.728;9.256;2023-03-11T14:33:05;96331.81;;;6.23;42.93
12178;BME280;6152;48.728;9.256;2023-03-11T14:35:32;96336.81;;;6.26;42.83
12178;BME280;6152;48.728;9.256;2023-03-11T14:37:59;96324.31;;;6.34;42.65
12178;BME280;6152;48.728;9.256;2023-03-11T14:40:31;96331.16;;;6.49;43.08
12178;BME280;6152;48.728;9.256;2023-03-11T14:43:02;96331.69;;;6.70;41.84